Startpagina
METAR-TAF:

METAR-TAF

Vliegvelden :

Teheran Mehrabad International Airport

Teheran, Iran

breedte: 35-41N, lengte: 051-21E, hoogte: 1204 m

Actueel weer

Dit bericht is 26 minuten geleden gemaakt, om 06:00 UTC
Wind 8 kt uit het oosten
Temperatuur 30°C
Vochtigheid 18%
Druk 1011 hPa
Zicht: 8000 m

METAR: OIII 190600Z 09008KT 8000 NSC 30/03 Q1010 A2984 NOSIG

Tijdstip: 10:56 (06:26 UTC)

Verwachting

Dit bericht is 56 minuten geleden gemaakt, om 05:30 UTC
Verwachting geldig van 19 om 06 UTC tot 20 om 12 UTC
Wind 8 kt uit het oostzuidoosten
Zicht 10 km of meer
geen wolken onder 1500 m en geen cumulonimbus
Tijdelijke
van 19 om 15 UTC tot 19 om 22 UTC
Wind 16 kt uit het noordwesten

TAF: OIII 190530Z 1906/2012 12004MPS CAVOK TEMPO 1915/1922 32008MPS

Waarnemingen en weersverwachtingen van meer dan 4000 vliegvelden (METAR en TAF).

De beschikbare stations zijn de gele en rode punten op de kaart.

Ga met uw muis naar het station om de naam te zien.

Klik dan om waarnemingen en weersverwachtingen te zien.

kaart wijzigen: klik op de groene knoppen met een zwart kruis om in te zoomen, op de groene knop met een streepje om uit te zoomen of op de groene pijlen voor aangrenzende kaarten.


METAR-TAF: